Time;durP1;ratioP1;P1;durP2;ratioP2;P2;SDS_P1;SDS_P2;PMS_P1;PMS_P2;Temp;Humidity;BMP_temperature;BMP_pressure;BME280_temperature;BME280_humidity;BME280_pressure;Samples;Min_cycle;Max_cycle;Signal;HPM_P1;HPM_P2
2022/11/05 00:10:52;;;;;;;1.90;1.40;;;10.10;96.20;;;;;;5015808;28;20502;-44
2022/11/05 00:19:05;;;;;;;1.90;1.50;;;10.10;96.30;;;;;;5061223;28;20513;-45
2022/11/05 00:27:04;;;;;;;1.80;1.30;;;10.10;96.30;;;;;;5077419;28;20445;-45
2022/11/05 00:29:29;;;;;;;2.03;1.13;;;10.10;96.30;;;;;;5088600;28;20484;-46
2022/11/05 00:31:55;;;;;;;2.00;1.20;;;10.00;96.30;;;;;;5098182;28;20415;-45
2022/11/05 00:34:21;;;;;;;1.30;1.00;;;10.00;96.30;;;;;;5098072;28;20177;-45
2022/11/05 00:36:46;;;;;;;2.73;1.23;;;10.00;96.30;;;;;;5099121;28;20342;-44
2022/11/05 00:39:12;;;;;;;1.63;1.23;;;10.00;96.40;;;;;;5098947;28;20189;-43
2022/11/05 00:41:37;;;;;;;2.03;1.13;;;10.00;96.40;;;;;;5080802;28;20180;-44
2022/11/05 00:46:47;;;;;;;2.03;1.37;;;10.00;96.50;;;;;;5083006;28;20194;-46
2022/11/05 00:49:31;;;;;;;1.60;0.83;;;10.00;96.50;;;;;;5097881;28;20423;-45
2022/11/05 00:54:40;;;;;;;1.83;1.10;;;10.00;96.50;;;;;;5097116;28;20468;-47
2022/11/05 00:57:06;;;;;;;1.87;1.03;;;10.00;96.50;;;;;;5097638;28;20478;-43
2022/11/05 00:59:31;;;;;;;1.50;1.03;;;10.00;96.50;;;;;;5079250;28;20176;-44
2022/11/05 01:01:57;;;;;;;2.00;1.10;;;9.90;97.10;;;;;;5096911;28;20571;-44
2022/11/05 01:04:24;;;;;;;1.80;1.23;;;9.90;97.20;;;;;;5096166;28;20235;-48
2022/11/05 01:06:52;;;;;;;1.40;1.10;;;9.90;97.30;;;;;;5095415;28;20460;-45
2022/11/05 01:09:17;;;;;;;1.73;1.00;;;9.90;97.30;;;;;;5096026;28;20200;-44
2022/11/05 01:11:44;;;;;;;1.33;0.90;;;9.90;97.30;;;;;;5078707;28;20528;-47
2022/11/05 01:14:12;;;;;;;1.20;1.00;;;9.90;97.40;;;;;;5096485;28;20205;-46
2022/11/05 01:16:38;;;;;;;1.27;0.90;;;9.90;97.40;;;;;;5096849;28;20434;-46
2022/11/05 01:19:06;;;;;;;1.83;0.90;;;9.90;97.50;;;;;;5097845;28;20415;-46
2022/11/05 01:21:32;;;;;;;2.13;1.10;;;9.90;97.50;;;;;;5098411;28;20669;-45
2022/11/05 01:23:57;;;;;;;1.30;0.90;;;9.90;97.50;;;;;;5096932;28;20469;-46
2022/11/05 01:26:23;;;;;;;1.30;1.00;;;9.80;97.50;;;;;;5097774;28;20223;-45
2022/11/05 01:28:59;;;;;;;3.07;1.40;;;9.80;97.60;;;;;;5096725;28;20186;-46
2022/11/05 01:31:24;;;;;;;1.43;0.90;;;9.90;97.60;;;;;;5077714;28;20180;-46
2022/11/05 01:33:50;;;;;;;2.00;1.20;;;9.80;97.60;;;;;;5095165;28;20435;-45
2022/11/05 01:36:16;;;;;;;1.63;1.10;;;9.90;97.80;;;;;;5094081;28;20199;-44
2022/11/05 01:38:41;;;;;;;1.20;0.97;;;9.80;97.80;;;;;;5076189;28;20254;-46
2022/11/05 01:41:07;;;;;;;1.83;1.20;;;9.80;97.80;;;;;;5094112;28;20267;-45
2022/11/05 01:43:54;;;;;;;1.30;0.90;;;9.80;97.80;;;;;;5094657;28;20204;-45
2022/11/05 01:46:43;;;;;;;1.50;1.00;;;9.80;97.80;;;;;;5095125;28;20430;-43
2022/11/05 01:49:16;;;;;;;1.30;1.00;;;9.80;97.80;;;;;;5085402;28;20422;-45
2022/11/05 01:51:43;;;;;;;1.30;1.07;;;9.80;97.80;;;;;;5079386;28;20521;-44
2022/11/05 01:54:13;;;;;;;1.60;1.10;;;9.90;97.80;;;;;;5096968;28;20481;-48
2022/11/05 01:56:55;;;;;;;1.40;1.00;;;9.80;97.80;;;;;;5097869;28;20517;-46
2022/11/05 01:59:33;;;;;;;2.10;0.93;;;9.80;97.80;;;;;;5079388;28;20430;-43
2022/11/05 02:02:00;;;;;;;2.03;0.80;;;9.80;97.90;;;;;;5097848;28;20422;-47
2022/11/05 02:04:34;;;;;;;1.90;1.50;;;9.80;97.90;;;;;;5079852;28;20564;-45
2022/11/05 02:07:01;;;;;;;2.10;1.20;;;9.80;98.00;;;;;;5079944;28;20427;-44
2022/11/05 02:09:40;;;;;;;1.80;1.13;;;9.80;98.00;;;;;;5079961;28;20425;-45
2022/11/05 02:12:07;;;;;;;1.83;0.83;;;9.80;97.90;;;;;;5097469;28;20527;-47
2022/11/05 02:14:33;;;;;;;2.13;1.10;;;9.80;97.90;;;;;;5079511;28;20406;-44
2022/11/05 02:17:04;;;;;;;1.57;1.07;;;9.80;98.00;;;;;;5097516;28;20422;-43
2022/11/05 02:19:32;;;;;;;2.47;1.13;;;9.80;98.00;;;;;;5079720;28;20188;-43
2022/11/05 02:22:34;;;;;;;1.20;0.80;;;9.80;98.10;;;;;;5098092;28;20671;-44
2022/11/05 02:25:05;;;;;;;1.17;0.87;;;9.80;98.10;;;;;;5080160;28;20489;-43
2022/11/05 02:27:55;;;;;;;1.70;0.70;;;9.80;98.10;;;;;;5079673;28;20426;-44
2022/11/05 02:30:43;;;;;;;1.03;0.67;;;9.80;98.10;;;;;;5079889;28;20410;-44
2022/11/05 02:33:18;;;;;;;2.30;1.00;;;9.80;98.10;;;;;;5096879;28;20418;-43
2022/11/05 02:35:44;;;;;;;1.10;0.67;;;9.80;98.10;;;;;;5097179;28;20398;-46
2022/11/05 02:38:21;;;;;;;1.30;0.70;;;9.80;98.10;;;;;;5097139;28;20844;-45
2022/11/05 02:40:54;;;;;;;1.37;0.53;;;9.80;98.10;;;;;;5079373;28;20183;-45
2022/11/05 02:43:56;;;;;;;1.70;0.90;;;9.80;98.10;;;;;;5097302;28;20527;-47
2022/11/05 02:46:44;;;;;;;2.60;0.93;;;9.80;98.20;;;;;;5096467;28;20408;-46
2022/11/05 02:50:05;;;;;;;1.73;0.80;;;9.80;98.20;;;;;;5097287;28;20417;-43
2022/11/05 02:52:49;;;;;;;1.40;0.80;;;9.80;98.20;;;;;;5013480;28;20480;-43
2022/11/05 02:55:39;;;;;;;2.00;0.70;;;9.80;98.20;;;;;;5091798;28;20423;-44
2022/11/05 02:58:05;;;;;;;1.30;0.80;;;9.80;98.20;;;;;;5096507;28;20475;-46
2022/11/05 03:00:46;;;;;;;1.20;0.90;;;9.80;98.30;;;;;;5079713;28;20422;-44
2022/11/05 03:03:17;;;;;;;1.17;0.60;;;9.80;98.30;;;;;;5097322;28;20458;-47
2022/11/05 03:05:55;;;;;;;1.47;1.00;;;9.80;98.30;;;;;;5096854;28;20447;-44
2022/11/05 03:08:56;;;;;;;1.90;1.40;;;9.80;98.40;;;;;;5096478;28;20403;-42
2022/11/05 03:11:24;;;;;;;2.00;1.13;;;9.80;98.40;;;;;;5096827;28;20418;-42
2022/11/05 03:13:58;;;;;;;3.10;0.90;;;9.80;98.50;;;;;;5096033;28;20415;-43
2022/11/05 03:16:41;;;;;;;1.53;1.33;;;9.80;98.60;;;;;;5078509;28;20883;-44
2022/11/05 03:19:17;;;;;;;1.73;1.30;;;9.80;98.60;;;;;;5097177;28;20461;-44
2022/11/05 03:22:13;;;;;;;1.50;1.17;;;9.80;98.70;;;;;;5078952;28;20836;-44
2022/11/05 03:24:45;;;;;;;1.70;1.37;;;9.80;98.70;;;;;;5075798;28;20560;-45
2022/11/05 03:27:18;;;;;;;1.50;1.03;;;9.80;98.80;;;;;;5080819;28;20431;-44
2022/11/05 03:29:53;;;;;;;3.90;1.30;;;9.80;98.90;;;;;;5099201;28;20468;-43
2022/11/05 03:32:21;;;;;;;1.50;1.17;;;9.80;98.90;;;;;;5081697;28;20427;-47
2022/11/05 03:34:49;;;;;;;1.70;1.20;;;9.80;98.90;;;;;;5080168;28;20415;-45
2022/11/05 03:37:18;;;;;;;1.60;1.03;;;9.80;98.90;;;;;;5097882;28;20833;-46
2022/11/05 03:39:47;;;;;;;1.67;1.20;;;9.80;99.00;;;;;;5063760;28;20427;-43
2022/11/05 03:42:15;;;;;;;1.97;1.03;;;9.70;98.90;;;;;;5099474;28;20416;-45
2022/11/05 03:44:45;;;;;;;1.83;1.20;;;9.70;99.00;;;;;;5098522;28;20564;-43
2022/11/05 03:47:15;;;;;;;1.50;1.10;;;9.70;99.00;;;;;;5079981;28;20429;-43
2022/11/05 03:49:54;;;;;;;1.70;1.10;;;9.70;99.00;;;;;;5097437;28;20407;-44
2022/11/05 03:52:24;;;;;;;1.40;1.20;;;9.70;99.10;;;;;;5080205;28;20879;-44
2022/11/05 03:54:50;;;;;;;1.30;0.97;;;9.70;99.30;;;;;;5080638;28;20859;-46
2022/11/05 03:57:25;;;;;;;2.80;1.33;;;9.70;99.10;;;;;;5098723;28;20459;-43
2022/11/05 03:59:51;;;;;;;1.70;1.30;;;9.70;99.10;;;;;;5064648;28;20188;-44
2022/11/05 04:02:18;;;;;;;3.07;1.30;;;9.80;99.20;;;;;;5099970;28;20411;-45
2022/11/05 04:04:44;;;;;;;1.47;1.00;;;9.80;99.20;;;;;;5098290;28;20425;-43
2022/11/05 04:15:25;;;;;;;1.30;1.10;;;9.80;99.30;;;;;;5099458;28;20488;-44
2022/11/05 04:17:51;;;;;;;1.97;0.90;;;9.80;99.30;;;;;;5099608;28;20422;-46
2022/11/05 04:25:47;;;;;;;1.80;1.70;;;9.80;99.30;;;;;;5098265;28;20418;-43
2022/11/05 04:28:13;;;;;;;1.47;0.80;;;9.80;99.20;;;;;;5098370;28;20415;-44
2022/11/05 04:30:39;;;;;;;1.73;1.23;;;9.80;99.30;;;;;;5098614;28;20243;-44
2022/11/05 04:33:09;;;;;;;1.13;0.90;;;9.80;99.30;;;;;;5099198;28;20558;-44
2022/11/05 04:35:53;;;;;;;1.03;0.80;;;9.80;99.40;;;;;;5097191;28;20419;-43
2022/11/05 04:38:19;;;;;;;1.70;1.00;;;9.80;99.50;;;;;;5097429;28;20407;-43
2022/11/05 04:40:46;;;;;;;1.60;1.10;;;9.80;99.50;;;;;;5098032;28;20438;-42
2022/11/05 04:43:16;;;;;;;1.30;1.17;;;9.80;99.60;;;;;;5097676;28;20458;-44
2022/11/05 04:45:42;;;;;;;2.50;1.00;;;9.80;99.60;;;;;;5098662;28;20614;-43
2022/11/05 04:48:08;;;;;;;1.70;1.03;;;9.80;99.70;;;;;;5098315;28;20452;-43
2022/11/05 04:50:34;;;;;;;1.37;1.20;;;9.80;99.70;;;;;;5098858;28;20169;-44
2022/11/05 04:52:59;;;;;;;1.60;1.30;;;9.70;99.70;;;;;;5098943;28;20551;-42
2022/11/05 04:55:25;;;;;;;1.80;1.60;;;9.70;99.70;;;;;;5097012;28;20272;-43
2022/11/05 04:57:52;;;;;;;1.53;1.23;;;9.70;99.60;;;;;;5098221;28;20230;-43
2022/11/05 05:00:19;;;;;;;2.13;1.27;;;9.70;99.70;;;;;;5098221;28;20433;-44
2022/11/05 05:02:45;;;;;;;2.00;1.30;;;9.70;99.60;;;;;;5097910;28;20467;-42
2022/11/05 05:05:11;;;;;;;1.70;0.97;;;9.70;99.60;;;;;;5098453;28;20841;-43
2022/11/05 05:07:37;;;;;;;1.47;1.13;;;9.70;99.60;;;;;;5080313;28;20668;-45
2022/11/05 05:10:04;;;;;;;2.30;1.50;;;9.70;99.60;;;;;;5098796;28;20430;-43
2022/11/05 05:12:31;;;;;;;2.57;1.13;;;9.70;99.60;;;;;;5097860;28;20455;-43
2022/11/05 05:14:57;;;;;;;1.97;1.03;;;9.70;99.60;;;;;;5097259;28;20415;-43
2022/11/05 05:17:23;;;;;;;1.40;1.20;;;9.70;99.60;;;;;;5097443;28;20417;-44
2022/11/05 05:22:32;;;;;;;1.40;1.00;;;9.70;99.70;;;;;;5097331;28;20595;-44
2022/11/05 05:24:58;;;;;;;2.60;1.27;;;9.70;99.70;;;;;;5097769;28;20419;-45
2022/11/05 05:27:28;;;;;;;2.67;1.23;;;9.70;99.60;;;;;;5097525;28;20268;-43
2022/11/05 05:29:55;;;;;;;2.60;1.50;;;9.70;99.70;;;;;;5097840;28;20427;-45
2022/11/05 05:32:21;;;;;;;2.27;1.23;;;9.70;99.80;;;;;;5098253;28;20411;-44
2022/11/05 05:34:46;;;;;;;2.43;1.30;;;9.70;99.80;;;;;;5097584;28;20418;-45
2022/11/05 05:37:12;;;;;;;2.60;1.50;;;9.70;99.80;;;;;;5097302;28;20872;-47
2022/11/05 05:39:38;;;;;;;1.20;1.00;;;9.70;99.80;;;;;;5097574;28;20276;-43
2022/11/05 05:42:03;;;;;;;2.53;1.53;;;9.70;99.90;;;;;;5097862;28;20184;-45
2022/11/05 05:44:29;;;;;;;1.47;1.10;;;9.70;99.90;;;;;;5098305;28;20480;-44
2022/11/05 05:46:55;;;;;;;1.77;1.00;;;9.70;99.90;;;;;;5096235;28;20239;-44
2022/11/05 05:49:20;;;;;;;1.30;1.00;;;9.70;99.80;;;;;;5097905;28;20616;-45
2022/11/05 05:51:49;;;;;;;1.50;1.20;;;9.70;99.80;;;;;;5097410;28;20194;-45
2022/11/05 05:54:15;;;;;;;1.60;1.47;;;9.70;99.80;;;;;;5099273;28;20188;-44
2022/11/05 05:56:45;;;;;;;1.93;1.20;;;9.70;99.80;;;;;;5080980;28;20852;-46
2022/11/05 05:59:11;;;;;;;4.47;1.00;;;9.70;99.80;;;;;;5097959;28;20809;-43
2022/11/05 06:01:36;;;;;;;1.50;1.40;;;9.70;99.80;;;;;;5062383;28;20684;-45
2022/11/05 06:04:02;;;;;;;2.30;1.57;;;9.70;99.80;;;;;;5098311;28;20532;-44
2022/11/05 06:06:29;;;;;;;2.10;1.67;;;9.70;99.70;;;;;;5081174;28;20570;-43
2022/11/05 06:08:55;;;;;;;1.40;1.20;;;9.70;99.70;;;;;;5080550;28;20443;-44
2022/11/05 06:11:22;;;;;;;1.90;1.43;;;9.70;99.80;;;;;;5098014;28;20711;-43
2022/11/05 06:13:48;;;;;;;2.13;1.33;;;9.70;99.80;;;;;;5097914;28;20410;-45
2022/11/05 06:16:14;;;;;;;1.50;1.40;;;9.70;99.80;;;;;;5081342;28;20431;-44
2022/11/05 06:18:40;;;;;;;1.80;1.70;;;9.70;99.80;;;;;;5079875;28;20442;-43
2022/11/05 06:21:08;;;;;;;4.27;1.90;;;9.60;99.80;;;;;;5096962;28;20433;-43
2022/11/05 06:23:35;;;;;;;4.07;2.37;;;9.70;99.80;;;;;;5096646;28;20204;-42
2022/11/05 06:26:01;;;;;;;2.70;2.50;;;9.60;99.80;;;;;;5096848;28;20748;-44
2022/11/05 06:28:28;;;;;;;2.43;2.10;;;9.60;99.90;;;;;;5097417;28;20532;-45
2022/11/05 06:30:54;;;;;;;2.50;2.30;;;9.70;99.90;;;;;;5096800;28;20472;-46
2022/11/05 06:33:20;;;;;;;2.53;1.87;;;9.60;99.90;;;;;;5097088;28;20699;-43
2022/11/05 06:35:45;;;;;;;2.10;1.90;;;9.70;99.90;;;;;;5096743;28;20427;-46
2022/11/05 06:38:11;;;;;;;2.40;2.17;;;9.70;99.90;;;;;;5097132;28;20187;-45
2022/11/05 06:40:37;;;;;;;2.50;2.23;;;9.60;99.90;;;;;;5097233;28;20212;-43
2022/11/05 06:43:02;;;;;;;2.53;2.00;;;9.70;99.90;;;;;;5096234;28;20809;-43
2022/11/05 06:45:28;;;;;;;4.30;3.10;;;9.70;99.90;;;;;;5079641;28;20185;-44
2022/11/05 06:47:55;;;;;;;2.70;2.50;;;9.70;99.90;;;;;;5097135;28;20177;-42
2022/11/05 06:50:22;;;;;;;3.33;3.07;;;9.70;99.90;;;;;;5097100;28;20177;-44
2022/11/05 06:52:58;;;;;;;3.10;2.80;;;9.70;99.90;;;;;;5096431;28;20423;-42
2022/11/05 06:55:26;;;;;;;4.13;3.83;;;9.70;99.90;;;;;;5079397;28;20549;-44
2022/11/05 06:57:52;;;;;;;4.60;3.60;;;9.70;99.90;;;;;;5097658;28;20468;-43
2022/11/05 07:00:18;;;;;;;4.70;4.20;;;9.60;99.90;;;;;;5082756;28;20516;-51
2022/11/05 07:02:44;;;;;;;4.00;3.70;;;9.70;99.90;;;;;;5099620;28;20192;-45
2022/11/05 07:05:10;;;;;;;4.03;3.73;;;9.70;99.90;;;;;;5099385;28;20502;-44
2022/11/05 07:07:43;;;;;;;4.17;3.77;;;9.70;99.90;;;;;;5099132;28;20446;-42
2022/11/05 07:10:17;;;;;;;3.73;3.43;;;9.60;99.90;;;;;;5081366;28;20489;-43
2022/11/05 07:12:43;;;;;;;3.70;3.40;;;9.70;99.90;;;;;;5098029;28;20419;-43
2022/11/05 07:15:10;;;;;;;4.67;4.23;;;9.60;99.90;;;;;;5098401;28;20548;-43
2022/11/05 07:17:35;;;;;;;5.43;4.83;;;9.70;99.90;;;;;;5080198;28;20406;-44
2022/11/05 07:20:02;;;;;;;5.00;4.60;;;9.70;99.90;;;;;;5097983;28;20492;-42
2022/11/05 07:22:28;;;;;;;6.27;5.67;;;9.70;99.90;;;;;;5073012;28;20182;-44
2022/11/05 07:24:53;;;;;;;9.23;5.57;;;9.70;99.90;;;;;;5078707;28;20420;-45
2022/11/05 07:27:19;;;;;;;6.30;5.77;;;9.70;99.90;;;;;;5079601;28;20170;-44
2022/11/05 07:29:45;;;;;;;7.27;6.67;;;9.60;99.90;;;;;;5079609;28;20634;-42
2022/11/05 07:32:10;;;;;;;6.97;6.27;;;9.60;99.90;;;;;;5080070;28;20193;-43
2022/11/05 07:34:36;;;;;;;8.03;6.30;;;9.60;99.90;;;;;;5079444;28;20233;-43
2022/11/05 07:37:02;;;;;;;6.83;5.80;;;9.70;99.90;;;;;;5080115;28;20189;-44
2022/11/05 07:39:27;;;;;;;8.13;6.00;;;9.70;99.90;;;;;;5079547;28;20600;-43
2022/11/05 07:41:53;;;;;;;6.57;5.90;;;9.70;99.90;;;;;;5079271;28;20198;-44
2022/11/05 07:44:20;;;;;;;7.77;7.03;;;9.70;99.90;;;;;;5079737;28;20652;-44
2022/11/05 07:46:45;;;;;;;7.70;6.93;;;9.70;99.90;;;;;;5079264;28;20416;-44
2022/11/05 07:49:11;;;;;;;7.30;6.60;;;9.70;99.90;;;;;;5078770;28;20845;-43
2022/11/05 07:51:36;;;;;;;7.63;7.00;;;9.70;99.90;;;;;;5061363;28;20173;-43
2022/11/05 07:54:02;;;;;;;6.63;5.97;;;9.70;99.90;;;;;;5079075;28;20192;-42
2022/11/05 07:56:28;;;;;;;6.07;5.57;;;9.70;99.90;;;;;;5079638;28;20181;-43
2022/11/05 07:58:53;;;;;;;7.30;6.63;;;9.70;99.90;;;;;;5078767;28;20206;-41
2022/11/05 08:01:19;;;;;;;7.20;6.50;;;9.70;99.90;;;;;;5079297;28;20212;-46
2022/11/05 08:03:45;;;;;;;8.47;7.77;;;9.80;99.90;;;;;;5079458;28;20468;-44
2022/11/05 08:06:10;;;;;;;8.57;7.87;;;9.80;99.90;;;;;;5078342;28;20231;-44
2022/11/05 08:08:36;;;;;;;9.27;8.37;;;9.80;99.90;;;;;;5061819;28;20178;-43
2022/11/05 08:11:03;;;;;;;8.07;7.37;;;9.70;99.90;;;;;;5078267;28;20174;-44
2022/11/05 08:13:29;;;;;;;8.30;7.50;;;9.70;99.90;;;;;;5078682;28;20185;-41
2022/11/05 08:15:56;;;;;;;8.50;7.60;;;9.70;99.90;;;;;;5061611;28;20488;-43
2022/11/05 08:18:22;;;;;;;7.17;6.53;;;9.70;99.90;;;;;;5078809;28;20186;-41
2022/11/05 08:20:48;;;;;;;8.80;6.10;;;9.80;99.90;;;;;;5079358;28;20419;-42
2022/11/05 08:23:14;;;;;;;7.83;7.03;;;9.80;99.80;;;;;;5060455;28;20741;-46
2022/11/05 08:25:39;;;;;;;8.00;6.93;;;9.90;99.70;;;;;;5078539;28;20177;-43
2022/11/05 08:28:09;;;;;;;8.60;7.53;;;10.00;98.90;;;;;;5077252;28;20178;-43
2022/11/05 08:30:35;;;;;;;9.27;8.30;;;10.10;98.80;;;;;;5077553;28;20261;-43
2022/11/05 08:33:09;;;;;;;9.00;8.10;;;10.20;98.60;;;;;;5078391;28;20912;-43
2022/11/05 08:35:36;;;;;;;9.63;7.80;;;10.30;98.40;;;;;;5043282;28;20469;-44
2022/11/05 08:38:04;;;;;;;7.00;6.30;;;10.50;98.10;;;;;;5096455;28;20423;-43
2022/11/05 08:40:31;;;;;;;5.83;5.17;;;10.60;97.80;;;;;;5095641;28;20727;-43
2022/11/05 08:42:58;;;;;;;5.23;4.73;;;10.70;97.50;;;;;;5078042;28;20504;-42
2022/11/05 08:45:25;;;;;;;3.97;3.57;;;10.80;97.20;;;;;;5095171;28;20438;-43
2022/11/05 08:47:56;;;;;;;4.30;3.90;;;11.00;97.10;;;;;;5077648;28;20517;-41
2022/11/05 08:50:22;;;;;;;4.53;4.10;;;11.20;96.70;;;;;;5076204;28;20455;-44
2022/11/05 08:52:48;;;;;;;4.70;3.70;;;11.40;96.50;;;;;;5097573;28;20508;-43
2022/11/05 08:55:17;;;;;;;4.83;4.33;;;11.60;96.20;;;;;;5118580;28;20184;-43
2022/11/05 08:57:45;;;;;;;3.90;3.60;;;11.80;95.90;;;;;;5099716;28;20516;-42
2022/11/05 09:00:12;;;;;;;4.30;3.90;;;12.10;95.10;;;;;;5098305;28;20813;-44
2022/11/05 09:02:37;;;;;;;4.07;3.67;;;12.40;94.50;;;;;;5100547;28;20451;-42
2022/11/05 09:05:04;;;;;;;4.27;3.87;;;12.60;94.10;;;;;;5100240;28;20428;-44
2022/11/05 09:07:30;;;;;;;3.37;3.07;;;12.70;93.40;;;;;;5098967;28;20184;-43
2022/11/05 09:09:55;;;;;;;3.50;3.20;;;12.70;93.20;;;;;;5117397;28;20709;-45
2022/11/05 09:12:21;;;;;;;3.93;3.60;;;12.80;93.20;;;;;;5115928;28;20621;-44
2022/11/05 09:14:47;;;;;;;5.23;4.73;;;12.90;93.10;;;;;;5117942;28;20211;-43
2022/11/05 09:17:21;;;;;;;5.90;5.40;;;12.90;93.00;;;;;;5099458;28;20203;-45
2022/11/05 09:19:47;;;;;;;5.10;4.70;;;12.80;92.90;;;;;;5117666;28;20531;-47
2022/11/05 09:22:13;;;;;;;4.20;3.80;;;12.80;92.80;;;;;;5118159;28;20453;-44
2022/11/05 09:24:40;;;;;;;3.83;3.43;;;12.70;92.70;;;;;;5100471;28;20294;-45
2022/11/05 09:27:09;;;;;;;4.30;3.90;;;12.70;92.90;;;;;;5099821;28;20842;-46
2022/11/05 09:29:35;;;;;;;5.03;2.97;;;12.70;92.80;;;;;;5099549;28;20700;-44
2022/11/05 09:32:01;;;;;;;3.10;2.80;;;12.80;92.80;;;;;;5118297;28;20884;-44
2022/11/05 09:34:26;;;;;;;3.37;3.07;;;13.00;92.80;;;;;;5117515;28;20422;-45
2022/11/05 09:36:52;;;;;;;5.40;4.90;;;13.20;92.60;;;;;;5117353;28;20835;-44
2022/11/05 09:39:18;;;;;;;6.30;5.80;;;13.30;92.30;;;;;;5099146;28;20184;-45
2022/11/05 09:41:45;;;;;;;5.40;5.00;;;13.40;92.00;;;;;;5116667;28;20455;-42
2022/11/05 09:44:15;;;;;;;4.87;4.43;;;13.40;91.80;;;;;;5098162;28;20252;-42
2022/11/05 09:46:54;;;;;;;4.40;4.10;;;13.40;91.70;;;;;;5116314;28;20417;-44
2022/11/05 09:49:24;;;;;;;4.33;4.00;;;13.30;91.60;;;;;;5114191;27;20886;-45
2022/11/05 09:51:52;;;;;;;3.90;3.60;;;13.20;91.40;;;;;;5096943;28;20712;-42
2022/11/05 09:54:20;;;;;;;4.40;4.03;;;13.00;91.30;;;;;;5106988;28;20727;-42
2022/11/05 09:56:47;;;;;;;4.60;4.03;;;12.90;91.40;;;;;;5105032;28;20540;-42
2022/11/05 09:59:15;;;;;;;4.57;4.17;;;12.70;91.50;;;;;;5085637;28;20445;-43
2022/11/05 10:01:42;;;;;;;4.90;4.40;;;12.60;91.70;;;;;;5064967;28;20433;-42
2022/11/05 10:04:24;;;;;;;4.60;4.20;;;12.50;91.90;;;;;;5073084;28;20613;-45
2022/11/05 10:06:58;;;;;;;5.50;5.00;;;12.50;92.20;;;;;;5038986;28;20514;-44
2022/11/05 10:09:37;;;;;;;6.23;5.40;;;12.50;92.30;;;;;;5075183;28;20566;-43
2022/11/05 10:12:23;;;;;;;5.57;4.83;;;12.60;92.40;;;;;;5058069;28;20759;-44
2022/11/05 10:15:10;;;;;;;4.93;4.53;;;12.70;92.30;;;;;;5057579;28;20518;-45
2022/11/05 10:17:38;;;;;;;5.93;5.30;;;12.90;92.10;;;;;;5075656;28;20398;-43
2022/11/05 10:20:32;;;;;;;5.07;4.67;;;13.00;91.90;;;;;;5060457;28;20436;-43
2022/11/05 10:23:17;;;;;;;7.20;5.30;;;13.20;91.90;;;;;;5078883;28;20897;-41
2022/11/05 10:26:04;;;;;;;3.00;2.67;;;13.50;91.40;;;;;;5087178;28;20427;-41
2022/11/05 10:28:32;;;;;;;2.67;2.20;;;14.10;93.90;;;;;;5095532;28;20442;-42
2022/11/05 10:31:00;;;;;;;4.67;2.50;;;15.10;96.20;;;;;;5089178;28;21011;-43
2022/11/05 10:33:33;;;;;;;2.20;1.97;;;16.70;95.80;;;;;;5090965;28;20424;-42
2022/11/05 10:36:05;;;;;;;3.60;2.70;;;18.70;92.20;;;;;;5102105;28;20429;-43
2022/11/05 10:38:31;;;;;;;2.93;2.63;;;21.30;85.50;;;;;;5102215;28;20460;-44
2022/11/05 10:41:08;;;;;;;2.80;2.60;;;24.10;74.00;;;;;;5102651;28;20459;-45
2022/11/05 10:43:44;;;;;;;3.00;2.70;;;26.10;60.50;;;;;;5111082;28;20490;-43
2022/11/05 10:46:25;;;;;;;3.77;3.40;;;26.60;54.20;;;;;;5127727;27;20435;-46
2022/11/05 10:49:03;;;;;;;2.57;2.37;;;26.10;52.10;;;;;;5134866;27;20508;-45
2022/11/05 10:51:29;;;;;;;3.50;2.90;;;25.40;52.80;;;;;;5112552;28;20429;-46
2022/11/05 10:53:56;;;;;;;3.57;3.27;;;24.90;52.80;;;;;;5100012;28;20418;-45
2022/11/05 10:56:32;;;;;;;3.20;2.90;;;24.70;52.80;;;;;;5114082;28;20438;-44
2022/11/05 10:59:00;;;;;;;3.00;2.73;;;24.20;52.40;;;;;;5101230;28;20426;-43
2022/11/05 11:01:26;;;;;;;3.40;3.10;;;23.60;52.60;;;;;;5102172;28;20417;-44
2022/11/05 11:04:04;;;;;;;3.80;3.50;;;22.90;53.10;;;;;;5098886;28;20478;-43
2022/11/05 11:06:36;;;;;;;4.83;3.67;;;22.20;55.10;;;;;;5102513;28;20182;-44
2022/11/05 11:09:06;;;;;;;5.57;3.80;;;21.60;56.30;;;;;;5118689;28;20430;-42
2022/11/05 11:11:34;;;;;;;8.07;6.47;;;21.00;57.50;;;;;;5095783;28;20444;-42
2022/11/05 11:14:04;;;;;;;11.00;7.10;;;20.50;58.60;;;;;;5118882;28;20855;-44
2022/11/05 11:17:14;;;;;;;7.00;5.77;;;20.00;60.00;;;;;;5119478;28;20425;-43
2022/11/05 11:19:39;;;;;;;7.77;7.03;;;19.50;61.10;;;;;;5116802;28;20435;-43
2022/11/05 11:22:05;;;;;;;8.63;7.73;;;19.20;62.90;;;;;;5119922;28;20708;-44
2022/11/05 11:24:38;;;;;;;8.93;6.67;;;18.90;64.10;;;;;;5112947;28;20208;-43
2022/11/05 11:27:10;;;;;;;8.27;5.93;;;18.70;65.10;;;;;;5089677;28;20223;-44
2022/11/05 11:29:38;;;;;;;9.40;8.17;;;18.50;66.50;;;;;;5101585;28;20415;-43
2022/11/05 11:32:31;;;;;;;9.07;8.17;;;18.30;67.20;;;;;;5118547;28;20782;-44
2022/11/05 11:34:57;;;;;;;7.20;6.60;;;18.10;69.30;;;;;;5100274;28;20438;-44
2022/11/05 11:37:27;;;;;;;7.30;6.60;;;17.90;70.60;;;;;;5118749;28;20411;-42
2022/11/05 11:40:15;;;;;;;6.40;5.80;;;17.70;70.60;;;;;;5119220;28;20557;-45
2022/11/05 11:42:45;;;;;;;5.90;5.40;;;17.40;68.50;;;;;;5118086;28;20438;-42
2022/11/05 11:45:25;;;;;;;5.47;5.00;;;17.10;68.30;;;;;;5098458;28;20450;-43
2022/11/05 11:47:51;;;;;;;6.00;4.73;;;16.90;68.70;;;;;;5111864;28;21409;-41
2022/11/05 11:50:40;;;;;;;6.00;5.50;;;16.60;69.00;;;;;;5103614;28;20433;-44
2022/11/05 11:53:21;;;;;;;7.30;6.60;;;16.40;69.60;;;;;;5083811;28;20215;-44
2022/11/05 11:56:19;;;;;;;7.30;6.67;;;16.30;69.30;;;;;;5118133;28;20457;-45
2022/11/05 11:58:53;;;;;;;6.87;6.23;;;16.20;68.10;;;;;;5117927;28;20470;-44
2022/11/05 12:01:34;;;;;;;6.20;5.30;;;16.40;68.10;;;;;;5118258;28;20435;-44
2022/11/05 12:04:17;;;;;;;6.20;5.60;;;16.60;68.20;;;;;;5118671;28;20473;-43
2022/11/05 12:07:11;;;;;;;5.73;5.23;;;17.00;67.80;;;;;;5098809;28;20430;-44
2022/11/05 12:09:55;;;;;;;5.77;5.27;;;17.30;66.70;;;;;;5118181;28;20408;-42
2022/11/05 12:12:30;;;;;;;5.10;4.60;;;17.60;64.80;;;;;;5119579;28;20406;-43
2022/11/05 12:15:13;;;;;;;5.00;4.30;;;17.80;64.10;;;;;;5114328;28;20436;-42
2022/11/05 12:17:42;;;;;;;4.70;4.30;;;18.00;62.80;;;;;;5099530;28;20420;-43
2022/11/05 12:20:13;;;;;;;4.10;3.60;;;18.20;61.70;;;;;;5113227;27;20841;-44
2022/11/05 12:22:48;;;;;;;5.63;5.03;;;18.50;60.50;;;;;;5133033;27;20436;-43
2022/11/05 12:25:14;;;;;;;5.53;5.10;;;19.00;59.40;;;;;;5119324;28;20425;-45
2022/11/05 12:27:56;;;;;;;5.40;4.90;;;19.00;58.70;;;;;;5118714;28;20821;-49
2022/11/05 12:30:22;;;;;;;4.57;4.20;;;18.80;58.70;;;;;;5116724;28;20941;-44
2022/11/05 12:33:31;;;;;;;5.00;4.23;;;18.60;59.00;;;;;;5115631;28;20495;-43
2022/11/05 12:36:15;;;;;;;5.80;5.17;;;18.90;59.80;;;;;;5025145;28;20537;-45
2022/11/05 12:38:56;;;;;;;5.73;5.23;;;19.40;58.90;;;;;;5089187;28;20864;-46
2022/11/05 12:41:33;;;;;;;5.33;4.83;;;19.60;57.80;;;;;;5083396;28;20429;-45
2022/11/05 12:44:32;;;;;;;5.97;5.37;;;19.70;57.30;;;;;;5116994;28;20454;-44
2022/11/05 12:47:07;;;;;;;5.80;5.30;;;19.60;56.50;;;;;;5117120;28;20429;-47
2022/11/05 12:49:51;;;;;;;6.00;5.50;;;19.50;56.20;;;;;;5111747;28;20404;-45
2022/11/05 12:52:20;;;;;;;6.23;5.37;;;19.20;56.00;;;;;;5117803;28;20448;-45
2022/11/05 12:55:12;;;;;;;5.90;5.30;;;19.00;56.20;;;;;;5118101;28;20881;-47
2022/11/05 12:57:40;;;;;;;5.50;5.00;;;18.70;56.30;;;;;;5085908;28;20466;-46
2022/11/05 13:00:09;;;;;;;5.53;4.90;;;18.30;56.70;;;;;;5098688;28;20445;-43
2022/11/05 13:02:56;;;;;;;4.40;4.00;;;17.90;57.00;;;;;;5083244;28;20418;-43
2022/11/05 13:05:36;;;;;;;4.80;4.30;;;17.60;57.20;;;;;;5116200;28;20474;-45
2022/11/05 13:08:40;;;;;;;5.23;4.73;;;17.20;57.40;;;;;;5116105;28;20413;-47
2022/11/05 13:11:19;;;;;;;6.03;5.30;;;16.90;58.10;;;;;;5063715;28;20596;-46
2022/11/05 13:14:02;;;;;;;4.60;4.20;;;16.60;58.60;;;;;;5098143;28;20412;-44
2022/11/05 13:16:34;;;;;;;5.23;4.80;;;16.30;58.80;;;;;;5115911;28;20506;-43
2022/11/05 13:19:18;;;;;;;5.30;4.80;;;16.10;58.90;;;;;;5115334;28;20417;-42
2022/11/05 13:21:49;;;;;;;6.30;5.37;;;15.90;59.30;;;;;;5111782;28;20846;-44
2022/11/05 13:24:25;;;;;;;6.07;5.50;;;15.70;59.60;;;;;;5098720;28;20461;-42
2022/11/05 13:27:27;;;;;;;7.33;4.80;;;15.60;60.10;;;;;;5092255;28;20448;-43
2022/11/05 13:30:06;;;;;;;9.67;4.97;;;15.60;64.40;;;;;;5068437;28;20585;-44
2022/11/05 13:32:37;;;;;;;7.00;5.13;;;15.90;74.20;;;;;;5096773;28;20414;-42
2022/11/05 13:35:12;;;;;;;11.47;5.33;;;16.20;76.60;;;;;;5114699;28;20859;-43
2022/11/05 13:40:43;;;;;;;7.23;6.43;;;16.50;72.50;;;;;;5115975;28;20774;-43
2022/11/05 13:43:29;;;;;;;6.67;6.07;;;16.50;68.80;;;;;;5097712;28;20460;-43
2022/11/05 13:46:03;;;;;;;6.90;6.20;;;16.30;66.80;;;;;;5116136;28;20423;-42
2022/11/05 13:48:47;;;;;;;6.80;6.10;;;16.00;66.20;;;;;;5116633;28;20412;-43
2022/11/05 13:51:25;;;;;;;9.77;8.77;;;15.70;66.40;;;;;;5115891;28;20537;-42
2022/11/05 13:54:09;;;;;;;10.57;8.60;;;15.40;67.30;;;;;;5116111;28;20425;-45
2022/11/05 13:56:56;;;;;;;8.87;7.40;;;15.20;68.10;;;;;;5111063;28;20437;-44
2022/11/05 13:59:34;;;;;;;7.63;5.70;;;14.90;68.50;;;;;;5115864;28;20457;-43
2022/11/05 14:02:15;;;;;;;6.67;5.20;;;14.70;68.80;;;;;;5099130;28;20424;-42